Time;durP1;ratioP1;P1;durP2;ratioP2;P2;SDS_P1;SDS_P2;PMS_P1;PMS_P2;Temp;Humidity;BMP_temperature;BMP_pressure;BME280_temperature;BME280_humidity;BME280_pressure;Samples;Min_cycle;Max_cycle;Signal;HPM_P1;HPM_P2
2021/11/17 02:32:46;;;;;;;1999.90;999.90;;;;;;;8.29;71.22;101488.66;15735683;28;20346;-65
2021/11/17 02:40:41;;;;;;;1999.90;999.90;;;;;;;7.86;72.51;101480.31;15714358;28;20052;-61
2021/11/17 02:48:28;;;;;;;1999.90;999.90;;;;;;;8.14;72.32;101477.75;15737045;28;20041;-63
2021/11/17 02:56:16;;;;;;;1999.90;999.90;;;;;;;8.24;72.17;101480.41;15714313;28;20139;-65
2021/11/17 03:04:03;;;;;;;1999.90;999.90;;;;;;;7.99;72.60;101476.81;15745910;28;20056;-64
2021/11/17 03:12:00;;;;;;;1999.90;999.90;;;;;;;8.09;72.48;101471.13;15706274;28;20051;-64
2021/11/17 03:19:48;;;;;;;1999.90;999.90;;;;;;;7.94;73.02;101481.63;15734277;28;20097;-63
2021/11/17 03:27:37;;;;;;;1999.90;999.90;;;;;;;7.79;73.77;101468.72;15748575;28;20040;-62
2021/11/17 03:35:37;;;;;;;1999.90;999.90;;;;;;;7.97;72.73;101476.28;15696660;28;20037;-64
2021/11/17 03:43:33;;;;;;;1999.90;999.90;;;;;;;7.51;73.81;101470.44;15710061;28;20047;-63
2021/11/17 03:51:31;;;;;;;1999.90;999.90;;;;;;;7.23;73.92;101461.84;15739735;28;20061;-62
2021/11/17 03:59:32;;;;;;;1999.90;999.90;;;;;;;7.15;74.48;101473.56;15725528;28;20052;-64
2021/11/17 04:07:22;;;;;;;1999.90;999.90;;;;;;;7.50;74.28;101468.75;15715940;28;20514;-63
2021/11/17 04:15:07;;;;;;;1999.90;999.90;;;;;;;7.31;74.87;101473.44;15723586;28;20045;-64
2021/11/17 04:23:00;;;;;;;1999.90;999.90;;;;;;;7.19;75.06;101468.25;15742292;28;20438;-64
2021/11/17 04:30:58;;;;;;;1999.90;999.90;;;;;;;7.39;74.78;101462.50;15728865;28;20048;-63
2021/11/17 04:38:49;;;;;;;1999.90;999.90;;;;;;;7.57;74.36;101471.22;15742781;28;20040;-61
2021/11/17 04:46:46;;;;;;;1999.90;999.90;;;;;;;7.22;75.13;101465.72;15716952;28;20521;-62
2021/11/17 04:54:39;;;;;;;1999.90;999.90;;;;;;;7.62;73.67;101466.44;15688092;28;20041;-65
2021/11/17 05:02:24;;;;;;;;;;;;;;;7.67;71.35;101454.44;15712341;28;20040;-63
2021/11/17 05:10:07;;;;;;;1999.90;999.90;;;;;;;7.48;72.14;101454.34;15735060;28;19920;-64
2021/11/17 05:17:48;;;;;;;1999.90;999.90;;;;;;;7.29;72.70;101457.03;15729864;28;20040;-64
2021/11/17 05:25:35;;;;;;;1999.90;999.90;;;;;;;7.13;73.06;101452.78;15689827;28;20075;-64
2021/11/17 05:33:27;;;;;;;1999.90;999.90;;;;;;;7.12;72.43;101462.22;15719502;28;20040;-65
2021/11/17 05:41:19;;;;;;;1999.90;999.90;;;;;;;7.41;72.46;101459.44;15714138;28;20498;-64
2021/11/17 05:49:04;;;;;;;1999.90;999.90;;;;;;;7.47;72.14;101470.19;15705421;28;20056;-65
2021/11/17 05:56:54;;;;;;;1999.90;999.90;;;;;;;7.24;72.98;101459.88;15736186;28;20064;-62
2021/11/17 06:04:26;;;;;;;1999.90;999.90;;;;;;;7.22;72.58;101465.72;15707167;28;20036;-62
2021/11/17 06:12:03;;;;;;;1999.90;999.90;;;;;;;7.07;72.90;101476.13;15726904;28;20086;-62
2021/11/17 06:19:40;;;;;;;1999.90;999.90;;;;;;;7.22;72.57;101481.56;15725830;28;20417;-62
2021/11/17 06:27:16;;;;;;;1999.90;999.90;;;;;;;7.42;71.77;101481.38;15729047;28;20040;-63
2021/11/17 06:34:53;;;;;;;1999.90;999.90;;;;;;;7.67;71.63;101482.22;15728804;28;20036;-63
2021/11/17 06:42:31;;;;;;;1999.90;999.90;;;;;;;7.26;73.50;101479.03;15734847;28;20059;-63
2021/11/17 06:50:05;;;;;;;1999.90;999.90;;;;;;;6.95;73.90;101466.25;15712073;28;20110;-61
2021/11/17 06:57:39;;;;;;;1999.90;999.90;;;;;;;7.39;73.75;101479.16;15735765;28;20048;-63
2021/11/17 07:05:12;;;;;;;1999.90;999.90;;;;;;;7.37;73.14;101486.13;15725163;28;20048;-62
2021/11/17 07:12:49;;;;;;;1999.90;999.90;;;;;;;7.47;73.06;101492.41;15735007;28;20044;-63
2021/11/17 07:20:24;;;;;;;1999.90;999.90;;;;;;;7.43;73.12;101491.34;15736463;28;20390;-62
2021/11/17 07:27:58;;;;;;;1999.90;999.90;;;;;;;7.33;74.04;101491.44;15742803;28;20041;-64
2021/11/17 07:35:33;;;;;;;1999.90;999.90;;;;;;;7.40;73.34;101500.28;15745913;28;20032;-63
2021/11/17 07:43:09;;;;;;;1999.90;999.90;;;;;;;7.42;73.82;101497.19;15746840;28;20079;-64
2021/11/17 07:50:43;;;;;;;1999.90;999.90;;;;;;;7.43;73.51;101499.69;15745499;28;20512;-64
2021/11/17 07:58:17;;;;;;;1999.90;999.90;;;;;;;7.32;74.02;101500.06;15745810;28;20045;-63
2021/11/17 08:05:52;;;;;;;1999.90;999.90;;;;;;;7.61;73.92;101502.81;15747618;28;20121;-64
2021/11/17 08:13:27;;;;;;;1999.90;999.90;;;;;;;7.68;73.44;101500.53;15746215;28;20044;-63
2021/11/17 08:20:59;;;;;;;1999.90;999.90;;;;;;;7.75;73.23;101498.22;15746447;28;20049;-64
2021/11/17 08:28:33;;;;;;;1999.90;999.90;;;;;;;7.79;73.53;101488.19;15746764;28;20095;-63
2021/11/17 08:36:07;;;;;;;1999.90;999.90;;;;;;;7.70;73.39;101482.44;15742869;28;20037;-63
2021/11/17 08:43:42;;;;;;;1999.90;999.90;;;;;;;7.64;73.75;101478.06;15734541;28;20403;-63
2021/11/17 08:51:17;;;;;;;1999.90;999.90;;;;;;;7.68;73.58;101479.13;15735838;28;20087;-64
2021/11/17 08:58:51;;;;;;;1999.90;999.90;;;;;;;7.78;73.30;101486.53;15742494;28;20506;-63
2021/11/17 09:06:24;;;;;;;1999.90;999.90;;;;;;;7.76;72.97;101489.59;15743390;28;20072;-63
2021/11/17 09:13:58;;;;;;;1999.90;999.90;;;;;;;7.68;73.14;101483.84;15742450;28;20068;-63
2021/11/17 09:21:33;;;;;;;1999.90;999.90;;;;;;;7.58;73.41;101490.34;15724659;28;20527;-63
2021/11/17 09:29:09;;;;;;;1999.90;999.90;;;;;;;7.59;73.52;101488.41;15740967;28;20036;-63
2021/11/17 09:36:42;;;;;;;1999.90;999.90;;;;;;;7.69;72.42;101489.13;15741266;28;20123;-63
2021/11/17 09:44:18;;;;;;;1999.90;999.90;;;;;;;7.77;72.53;101477.34;15740295;28;20119;-62
2021/11/17 09:51:53;;;;;;;1999.90;999.90;;;;;;;7.87;72.20;101472.81;15738997;28;20048;-63
2021/11/17 09:59:33;;;;;;;1999.90;999.90;;;;;;;7.65;72.69;101467.78;15740859;28;20059;-64
2021/11/17 10:15:15;;;;;;;1999.90;999.90;;;;;;;7.94;71.94;101468.56;15738587;28;20114;-63
2021/11/17 10:22:53;;;;;;;1999.90;999.90;;;;;;;7.99;71.58;101451.78;15738592;28;20493;-63
2021/11/17 10:30:34;;;;;;;1999.90;999.90;;;;;;;7.97;71.58;101440.16;15739650;28;20139;-64
2021/11/17 10:38:10;;;;;;;1999.90;999.90;;;;;;;7.98;71.92;101438.19;15737664;28;20048;-64
2021/11/17 10:45:48;;;;;;;1999.90;999.90;;;;;;;8.15;71.47;101441.31;15737639;28;20052;-64
2021/11/17 10:53:31;;;;;;;1999.90;999.90;;;;;;;7.90;71.41;101438.84;15729977;28;20458;-64
2021/11/17 11:01:13;;;;;;;1999.90;999.90;;;;;;;8.03;71.23;101443.72;15741821;28;20133;-62
2021/11/17 11:08:52;;;;;;;1999.90;999.90;;;;;;;7.95;72.47;101441.59;15733751;28;20135;-60
2021/11/17 11:16:30;;;;;;;1999.90;999.90;;;;;;;8.09;71.48;101428.59;15749488;28;20036;-63
2021/11/17 11:24:25;;;;;;;1999.90;999.90;;;;;;;8.37;70.72;101432.41;15750191;28;20037;-63
2021/11/17 11:32:00;;;;;;;1999.90;999.90;;;;;;;8.34;70.31;101444.09;15731530;28;20139;-64
2021/11/17 11:39:45;;;;;;;1999.90;999.90;;;;;;;8.24;70.76;101447.88;15747542;28;20049;-64
2021/11/17 11:47:50;;;;;;;1999.90;999.90;;;;;;;8.41;70.24;101438.19;15747696;28;20045;-64
2021/11/17 11:55:23;;;;;;;1999.90;999.90;;;;;;;8.33;70.03;101431.31;15747231;28;20080;-63
2021/11/17 12:02:59;;;;;;;1999.90;999.90;;;;;;;8.22;70.83;101444.53;15746043;28;20060;-64
2021/11/17 12:10:35;;;;;;;1999.90;999.90;;;;;;;8.51;69.91;101438.03;15746315;28;20059;-63
2021/11/17 12:18:18;;;;;;;1999.90;999.90;;;;;;;7.94;71.56;101426.88;15745364;28;20055;-64
2021/11/17 12:26:07;;;;;;;1999.90;999.90;;;;;;;8.38;70.84;101425.72;15747343;28;20067;-63
2021/11/17 12:33:48;;;;;;;1999.90;999.90;;;;;;;8.21;71.11;101433.72;15743713;28;20040;-63
2021/11/17 12:41:27;;;;;;;1999.90;999.90;;;;;;;8.73;69.55;101421.53;15744144;28;20050;-64
2021/11/17 12:49:19;;;;;;;1999.90;999.90;;;;;;;9.24;67.77;101417.84;15742465;28;20048;-63
2021/11/17 12:56:55;;;;;;;1999.90;999.90;;;;;;;9.20;67.71;101414.03;15744294;28;20552;-62
2021/11/17 13:04:33;;;;;;;1999.90;999.90;;;;;;;9.12;67.47;101410.00;15743116;28;20708;-64
2021/11/17 13:12:18;;;;;;;1999.90;999.90;;;;;;;8.93;68.37;101415.63;15741947;28;20045;-63
2021/11/17 13:19:53;;;;;;;;;;;;;;;9.15;67.76;101414.13;15737437;28;20094;-63
2021/11/17 13:27:39;;;;;;;1999.90;999.90;;;;;;;9.04;68.09;101429.38;15732726;22;19947;-81
2021/11/17 13:35:29;;;;;;;1999.90;999.90;;;;;;;9.04;68.77;101426.56;15650062;28;20538;-81
2021/11/17 13:43:02;;;;;;;1999.90;999.90;;;;;;;9.21;68.06;101424.88;15678414;22;20045;-61
2021/11/17 13:50:39;;;;;;;1999.90;999.90;;;;;;;9.15;67.95;101412.16;15657919;28;20052;-61
2021/11/17 13:58:13;;;;;;;1999.90;999.90;;;;;;;9.24;67.11;101413.09;15615687;28;20140;-61
2021/11/17 14:05:49;;;;;;;1999.90;999.90;;;;;;;9.13;67.67;101403.28;15646432;28;20049;-63
2021/11/17 14:13:21;;;;;;;1999.90;999.90;;;;;;;9.17;67.93;101389.56;15606677;28;20072;-60
2021/11/17 14:20:56;;;;;;;1999.90;999.90;;;;;;;9.17;68.06;101393.22;15660317;28;20417;-59
2021/11/17 14:28:36;;;;;;;1999.90;999.90;;;;;;;9.25;68.03;101392.47;15673270;28;20405;-62
2021/11/17 14:36:11;;;;;;;1999.90;999.90;;;;;;;9.02;68.58;101401.00;15659660;28;20049;-62
2021/11/17 14:43:44;;;;;;;1999.90;999.90;;;;;;;9.01;68.84;101402.16;15667658;28;20045;-60
2021/11/17 14:51:18;;;;;;;1999.90;999.90;;;;;;;9.18;68.71;101411.56;15666973;28;20064;-61
2021/11/17 14:58:51;;;;;;;1999.90;999.90;;;;;;;9.02;68.75;101415.75;15667248;28;20596;-62
2021/11/17 15:06:26;;;;;;;1999.90;999.90;;;;;;;9.04;69.57;101419.06;15666304;28;20033;-62
2021/11/17 15:13:58;;;;;;;1999.90;999.90;;;;;;;8.76;71.20;101415.38;15683716;28;20079;-62
2021/11/17 15:21:33;;;;;;;1999.90;999.90;;;;;;;8.87;70.88;101419.66;15684171;28;20049;-62
2021/11/17 15:29:05;;;;;;;1999.90;999.90;;;;;;;8.74;71.28;101398.13;15689276;28;20044;-62
2021/11/17 15:36:40;;;;;;;1999.90;999.90;;;;;;;8.89;70.93;101395.09;15665895;28;20071;-63
2021/11/17 15:44:15;;;;;;;1999.90;999.90;;;;;;;8.84;71.08;101375.69;15663177;28;20452;-62
2021/11/17 15:51:50;;;;;;;1999.90;999.90;;;;;;;8.88;70.97;101387.06;15658819;28;20039;-62
2021/11/17 15:59:23;;;;;;;1999.90;999.90;;;;;;;8.90;71.20;101393.97;15676009;28;20068;-62
2021/11/17 16:07:00;;;;;;;1999.90;999.90;;;;;;;8.85;71.23;101384.88;15681054;28;20045;-62
2021/11/17 16:14:33;;;;;;;1999.90;999.90;;;;;;;8.82;71.56;101385.50;15661754;28;20052;-61
2021/11/17 16:22:12;;;;;;;1999.90;999.90;;;;;;;8.84;71.42;101417.44;15662028;28;20362;-61
2021/11/17 16:29:48;;;;;;;1999.90;999.90;;;;;;;8.91;71.11;101428.19;15678685;28;20449;-61
2021/11/17 16:37:23;;;;;;;1999.90;999.90;;;;;;;9.11;70.40;101438.16;15660338;28;20044;-59
2021/11/17 16:44:56;;;;;;;1999.90;999.90;;;;;;;8.76;71.59;101451.56;15677512;28;20124;-61
2021/11/17 16:52:31;;;;;;;1999.90;999.90;;;;;;;9.29;70.06;101456.78;15677364;28;20076;-62
2021/11/17 17:00:05;;;;;;;1999.90;999.90;;;;;;;9.17;71.20;101468.41;15658950;28;20049;-61
2021/11/17 17:07:39;;;;;;;1999.90;999.90;;;;;;;9.20;71.36;101466.97;15676898;28;20045;-63
2021/11/17 17:15:14;;;;;;;1999.90;999.90;;;;;;;9.41;70.83;101467.41;15665204;28;20236;-59
2021/11/17 17:22:52;;;;;;;1999.90;999.90;;;;;;;9.31;71.81;101473.16;15676096;28;20083;-61
2021/11/17 17:30:27;;;;;;;1999.90;999.90;;;;;;;9.58;71.02;101484.34;15641348;28;20465;-62
2021/11/17 17:38:01;;;;;;;1999.90;999.90;;;;;;;9.30;72.43;101499.38;15655768;28;20350;-61
2021/11/17 17:45:35;;;;;;;1999.90;999.90;;;;;;;9.50;72.31;101512.94;15673226;28;20127;-61
2021/11/17 17:53:12;;;;;;;1999.90;999.90;;;;;;;9.38;73.15;101526.50;15637822;28;20060;-60
2021/11/17 18:00:46;;;;;;;1999.90;999.90;;;;;;;9.40;74.76;101532.63;15663769;28;20157;-60
2021/11/17 18:08:22;;;;;;;1999.90;999.90;;;;;;;9.46;76.25;101550.88;15642259;28;20047;-62
2021/11/17 18:15:55;;;;;;;1999.90;999.90;;;;;;;9.26;77.72;101538.94;15670823;28;20091;-63
2021/11/17 18:23:29;;;;;;;1999.90;999.90;;;;;;;9.58;77.27;101565.16;15653020;28;20037;-63
2021/11/17 18:31:02;;;;;;;1999.90;999.90;;;;;;;9.49;77.76;101573.41;15614158;28;20045;-65
2021/11/17 18:38:36;;;;;;;1999.90;999.90;;;;;;;9.32;78.35;101564.78;15633743;28;20056;-62
2021/11/17 18:46:09;;;;;;;1999.90;999.90;;;;;;;9.43;78.33;101582.13;15655959;28;20045;-55
2021/11/17 18:53:43;;;;;;;1999.90;999.90;;;;;;;9.76;77.25;101572.63;15676217;28;20079;-59
2021/11/17 19:01:20;;;;;;;1999.90;999.90;;;;;;;9.97;76.44;101586.19;15653134;28;20057;-63
2021/11/17 19:08:54;;;;;;;1999.90;999.90;;;;;;;9.78;76.98;101586.25;15593075;28;20266;-59
2021/11/17 19:16:30;;;;;;;1999.90;999.90;;;;;;;9.82;76.97;101601.25;15635500;28;20064;-57
2021/11/17 19:24:05;;;;;;;1999.90;999.90;;;;;;;9.59;78.09;101610.56;15640405;28;20332;-57
2021/11/17 19:31:38;;;;;;;1999.90;999.90;;;;;;;9.67;77.48;101621.84;15714326;22;20071;-60
2021/11/17 19:39:13;;;;;;;1999.90;999.90;;;;;;;9.96;76.30;101627.19;15766613;28;20032;-63
2021/11/17 19:46:47;;;;;;;1999.90;999.90;;;;;;;9.56;77.32;101623.16;15777280;28;20079;-61
2021/11/17 19:54:21;;;;;;;1999.90;999.90;;;;;;;9.68;77.20;101631.84;15729495;28;20048;-63
2021/11/17 20:01:55;;;;;;;1999.90;999.90;;;;;;;9.63;77.12;101640.31;15743288;28;20047;-61
2021/11/17 20:09:30;;;;;;;1999.90;999.90;;;;;;;9.66;77.10;101653.63;15728136;28;20052;-62
2021/11/17 20:17:03;;;;;;;1999.90;999.90;;;;;;;9.68;76.94;101648.56;15718262;28;20048;-61
2021/11/17 20:24:37;;;;;;;1999.90;999.90;;;;;;;10.03;75.90;101665.84;15727894;28;20131;-63
2021/11/17 20:32:11;;;;;;;1999.90;999.90;;;;;;;9.95;75.92;101672.94;15720324;28;20041;-64
2021/11/17 20:39:45;;;;;;;;;;;;;;;10.26;74.88;101678.81;15740926;28;20556;-62
2021/11/17 20:47:17;;;;;;;;;;;;;;;10.06;75.34;101688.34;15734531;28;20229;-61
2021/11/17 20:54:51;;;;;;;1999.90;999.90;;;;;;;9.67;76.54;101693.47;15733252;28;19948;-62
2021/11/17 21:02:24;;;;;;;1999.90;999.90;;;;;;;9.58;76.65;101701.69;15704512;28;20084;-62
2021/11/17 21:09:58;;;;;;;1999.90;999.90;;;;;;;9.97;75.09;101698.53;15699688;28;20054;-60
2021/11/17 21:17:30;;;;;;;1999.90;999.90;;;;;;;9.55;76.24;101713.44;15703949;28;20055;-61
2021/11/17 21:25:07;;;;;;;1999.90;999.90;;;;;;;9.73;75.62;101711.78;15731153;28;20055;-60
2021/11/17 21:32:40;;;;;;;1999.90;999.90;;;;;;;9.36;77.04;101709.81;15716133;28;20036;-61
2021/11/17 21:40:16;;;;;;;1999.90;999.90;;;;;;;9.60;75.81;101718.13;15746641;28;20440;-62
2021/11/17 21:47:49;;;;;;;1999.90;999.90;;;;;;;9.16;76.39;101713.72;15726185;22;20063;-61
2021/11/17 21:55:26;;;;;;;1999.90;999.90;;;;;;;9.13;76.82;101711.56;15740939;28;20048;-62
2021/11/17 22:02:59;;;;;;;1999.90;999.90;;;;;;;9.01;77.08;101712.00;15747770;22;20210;-62
2021/11/17 22:10:32;;;;;;;1999.90;999.90;;;;;;;9.14;75.92;101699.28;15731860;28;20127;-62
2021/11/17 22:18:08;;;;;;;1999.90;999.90;;;;;;;8.75;77.29;101714.25;15628665;28;20040;-60
2021/11/17 22:25:42;;;;;;;1999.90;999.90;;;;;;;8.83;77.17;101716.38;15674640;28;20386;-61
2021/11/17 22:33:15;;;;;;;1999.90;999.90;;;;;;;9.03;76.30;101720.88;15628691;28;20049;-60
2021/11/17 22:40:51;;;;;;;1999.90;999.90;;;;;;;8.85;76.76;101721.66;15670636;28;20044;-58
2021/11/17 22:48:25;;;;;;;1999.90;999.90;;;;;;;8.78;77.04;101712.84;15699848;28;20195;-60
2021/11/17 22:55:59;;;;;;;1999.90;999.90;;;;;;;8.76;76.89;101729.03;15636515;28;20088;-58
2021/11/17 23:03:32;;;;;;;1999.90;999.90;;;;;;;8.74;76.68;101739.59;15657270;28;20466;-60
2021/11/17 23:11:07;;;;;;;1999.90;999.90;;;;;;;8.70;76.71;101733.81;15666719;28;20092;-61
2021/11/17 23:18:40;;;;;;;1999.90;999.90;;;;;;;8.68;76.93;101733.28;15646826;28;20133;-60
2021/11/17 23:26:15;;;;;;;;;;;;;;;8.69;76.21;101732.16;15691383;28;20533;-56
2021/11/17 23:33:50;;;;;;;1999.90;999.90;;;;;;;8.48;77.50;101734.31;15640083;28;19920;-61
2021/11/17 23:41:25;;;;;;;1999.90;999.90;;;;;;;8.61;76.78;101747.53;15681293;28;20092;-59
2021/11/17 23:48:58;;;;;;;1999.90;999.90;;;;;;;8.47;76.90;101760.50;15656467;28;20420;-60
2021/11/17 23:56:32;;;;;;;1999.90;999.90;;;;;;;8.63;76.95;101748.06;15639175;28;20041;-61
